Time;durP1;ratioP1;P1;durP2;ratioP2;P2;SDS_P1;SDS_P2;PMS_P1;PMS_P2;Temp;Humidity;BMP_temperature;BMP_pressure;BME280_temperature;BME280_humidity;BME280_pressure;Samples;Min_cycle;Max_cycle;Signal;HPM_P1;HPM_P2
2022/05/07 00:00:42;;;;;;;5.80;3.75;;;;;;;-139.48;100.00;61774.03;4923831;29;19922;-71
2022/05/07 00:03:26;;;;;;;6.35;4.38;;;;;;;-139.48;100.00;61774.03;4910093;29;20062;-72
2022/05/07 00:06:10;;;;;;;5.85;4.78;;;;;;;-139.48;100.00;61774.03;4923559;29;20070;-72
2022/05/07 00:08:54;;;;;;;7.35;4.18;;;;;;;-139.48;100.00;61774.03;4937924;29;20089;-71
2022/05/07 00:11:37;;;;;;;7.72;3.95;;;;;;;-139.48;100.00;61774.03;4923404;29;20107;-72
2022/05/07 00:14:21;;;;;;;9.85;4.65;;;;;;;-139.48;100.00;61774.03;4923207;29;20066;-72
2022/05/07 00:20:09;;;;;;;7.78;4.93;;;;;;;-139.48;100.00;61774.03;4925625;29;20547;-71
2022/05/07 00:22:54;;;;;;;5.35;4.10;;;;;;;-139.48;100.00;61774.03;4923080;29;20111;-72
2022/05/07 00:25:38;;;;;;;6.47;3.85;;;;;;;-139.48;100.00;61774.03;4923121;29;20130;-71
2022/05/07 00:28:22;;;;;;;6.28;4.00;;;;;;;-139.48;100.00;61774.03;4923387;29;20055;-71
2022/05/07 00:31:06;;;;;;;8.88;5.18;;;;;;;-139.48;100.00;61774.03;4937470;29;20049;-71
2022/05/07 00:33:50;;;;;;;4.63;3.70;;;;;;;-139.48;100.00;61774.03;4937244;29;20139;-71
2022/05/07 00:36:34;;;;;;;10.48;4.22;;;;;;;-139.48;100.00;61774.03;4937342;29;20046;-72
2022/05/07 00:39:18;;;;;;;6.95;4.10;;;;;;;-139.48;100.00;61774.03;4922915;29;20095;-71
2022/05/07 00:42:06;;;;;;;14.18;4.40;;;;;;;-139.48;100.00;61774.03;4936922;29;20050;-71
2022/05/07 00:44:51;;;;;;;6.20;3.78;;;;;;;-139.48;100.00;61774.03;4922874;29;20159;-71
2022/05/07 00:47:35;;;;;;;5.68;3.75;;;;;;;-139.48;100.00;61774.03;4922858;29;20516;-71
2022/05/07 00:53:24;;;;;;;6.43;4.60;;;;;;;-139.48;100.00;61774.03;4924994;29;20054;-71
2022/05/07 00:56:08;;;;;;;8.95;4.07;;;;;;;-139.48;100.00;61774.03;4922498;29;20111;-71
2022/05/07 00:58:52;;;;;;;7.43;3.83;;;;;;;-139.48;100.00;61774.03;4908853;29;20130;-71
2022/05/07 01:01:36;;;;;;;6.70;4.20;;;;;;;-139.48;100.00;61774.03;4922287;29;20128;-71
2022/05/07 01:04:20;;;;;;;5.35;4.00;;;;;;;-139.48;100.00;61774.03;4922472;29;20102;-72
2022/05/07 01:07:04;;;;;;;7.57;4.60;;;;;;;-139.48;100.00;61774.03;4909101;29;20050;-71
2022/05/07 01:09:49;;;;;;;6.90;3.70;;;;;;;-139.48;100.00;61774.03;4922510;29;20079;-71
2022/05/07 01:12:35;;;;;;;8.30;4.45;;;;;;;-139.48;100.00;61774.03;4922397;29;20047;-72
2022/05/07 01:15:18;;;;;;;8.25;4.18;;;;;;;-139.48;100.00;61774.03;4922526;29;20066;-71
2022/05/07 01:18:03;;;;;;;5.82;3.92;;;;;;;-139.48;100.00;61774.03;4936555;29;20055;-71
2022/05/07 01:20:47;;;;;;;5.57;4.13;;;;;;;-139.48;100.00;61774.03;4922192;29;20050;-71
2022/05/07 01:23:31;;;;;;;8.88;3.70;;;;;;;-139.48;100.00;61774.03;4922177;29;20046;-71
2022/05/07 01:26:20;;;;;;;12.73;4.00;;;;;;;-139.48;100.00;61774.03;4908496;29;20515;-71
2022/05/07 01:29:04;;;;;;;5.28;3.97;;;;;;;-139.48;100.00;61774.03;4922751;29;20047;-71
2022/05/07 01:31:48;;;;;;;6.43;4.18;;;;;;;-139.48;100.00;61774.03;4922045;29;20049;-71
2022/05/07 01:34:32;;;;;;;9.18;4.05;;;;;;;-139.48;100.00;61774.03;4936255;29;20054;-71
2022/05/07 01:37:16;;;;;;;7.78;4.13;;;;;;;-139.48;100.00;61774.03;4936195;29;20424;-71
2022/05/07 01:40:00;;;;;;;4.93;4.05;;;;;;;-139.48;100.00;61774.03;4922296;29;20472;-71
2022/05/07 01:42:44;;;;;;;8.13;4.18;;;;;;;-139.48;100.00;61774.03;4935928;29;20055;-71
2022/05/07 01:45:28;;;;;;;6.43;3.90;;;;;;;-139.48;100.00;61774.03;4936126;29;20423;-71
2022/05/07 01:48:13;;;;;;;8.70;4.05;;;;;;;-139.48;100.00;61774.03;4921652;29;20054;-71
2022/05/07 01:50:56;;;;;;;6.72;4.28;;;;;;;-139.48;100.00;61774.03;4921985;29;20516;-71
2022/05/07 01:53:40;;;;;;;5.80;3.80;;;;;;;-139.48;100.00;61774.03;4921523;29;20050;-71
2022/05/07 01:56:24;;;;;;;8.18;3.97;;;;;;;-139.48;100.00;61774.03;4921916;29;20515;-71
2022/05/07 01:59:08;;;;;;;12.05;4.32;;;;;;;-139.48;100.00;61774.03;4935994;29;20050;-72
2022/05/07 02:04:41;;;;;;;4.88;4.07;;;;;;;-139.48;100.00;61774.03;4954400;29;20062;-70
2022/05/07 02:07:24;;;;;;;5.72;4.55;;;;;;;-139.48;100.00;61774.03;4955043;29;20107;-70
2022/05/07 02:10:08;;;;;;;7.10;4.25;;;;;;;-139.48;100.00;61774.03;4956368;28;20126;-70
2022/05/07 02:12:52;;;;;;;5.07;3.58;;;;;;;-139.48;100.00;61774.03;4935565;29;20463;-70
2022/05/07 02:15:36;;;;;;;5.78;3.88;;;;;;;-139.48;100.00;61774.03;4939257;29;20110;-70
2022/05/07 02:18:20;;;;;;;11.25;4.03;;;;;;;-139.48;100.00;61774.03;4939911;29;20051;-70
2022/05/07 02:21:04;;;;;;;7.82;3.70;;;;;;;-139.48;100.00;61774.03;4938532;29;20053;-70
2022/05/07 02:23:48;;;;;;;10.32;4.43;;;;;;;-139.48;100.00;61774.03;4939751;29;20103;-70
2022/05/07 02:26:32;;;;;;;7.72;3.90;;;;;;;-139.48;100.00;61774.03;4939043;29;20559;-70
2022/05/07 02:29:16;;;;;;;4.32;3.63;;;;;;;-139.48;100.00;61774.03;4939613;29;20062;-70
2022/05/07 02:32:06;;;;;;;9.40;3.33;;;;;;;-139.48;100.00;61774.03;4939597;29;20098;-71
2022/05/07 02:34:50;;;;;;;8.40;3.95;;;;;;;-139.48;100.00;61774.03;4939497;29;20131;-70
2022/05/07 02:37:35;;;;;;;10.50;4.13;;;;;;;-139.48;100.00;61774.03;4939556;29;20066;-70
2022/05/07 02:40:20;;;;;;;6.00;4.05;;;;;;;-139.48;100.00;61774.03;4939487;29;20548;-70
2022/05/07 02:43:03;;;;;;;7.32;4.15;;;;;;;-139.48;100.00;61774.03;4938232;29;20515;-70
2022/05/07 02:45:48;;;;;;;6.93;3.97;;;;;;;-139.48;100.00;61774.03;4938459;29;20099;-70
2022/05/07 02:48:35;;;;;;;5.72;4.35;;;;;;;-139.48;100.00;61774.03;4938637;29;20087;-70
2022/05/07 02:51:19;;;;;;;5.60;4.15;;;;;;;-139.48;100.00;61774.03;4925355;29;20167;-70
2022/05/07 02:54:03;;;;;;;5.70;4.43;;;;;;;-139.48;100.00;61774.03;4924581;29;20058;-70
2022/05/07 02:56:47;;;;;;;6.78;3.80;;;;;;;-139.48;100.00;61774.03;4938269;29;20090;-71
2022/05/07 02:59:31;;;;;;;5.55;4.25;;;;;;;-139.48;100.00;61774.03;4938551;29;20054;-70
2022/05/07 03:02:16;;;;;;;8.32;4.15;;;;;;;-139.48;100.00;61774.03;4940409;29;20141;-70
2022/05/07 03:04:59;;;;;;;10.63;5.20;;;;;;;-139.48;100.00;61774.03;4958258;29;20120;-70
2022/05/07 03:07:44;;;;;;;4.97;3.63;;;;;;;-139.48;100.00;61774.03;4930211;29;20559;-70
2022/05/07 03:10:28;;;;;;;5.82;4.28;;;;;;;-139.48;100.00;61774.03;4958132;29;20058;-70
2022/05/07 03:13:12;;;;;;;9.13;4.72;;;;;;;-139.48;100.00;61774.03;4957760;28;20045;-70
2022/05/07 03:15:56;;;;;;;9.45;4.25;;;;;;;-139.48;100.00;61774.03;4943514;29;20094;-70
2022/05/07 03:18:40;;;;;;;7.10;5.03;;;;;;;-139.48;100.00;61774.03;4957950;29;20050;-70
2022/05/07 03:21:23;;;;;;;8.85;4.18;;;;;;;-139.48;100.00;61774.03;4929975;29;20519;-70
2022/05/07 03:24:07;;;;;;;4.78;4.05;;;;;;;-139.48;100.00;61774.03;4957577;28;20081;-70
2022/05/07 03:26:51;;;;;;;8.95;4.68;;;;;;;-139.48;100.00;61774.03;4943012;29;20081;-70
2022/05/07 03:29:35;;;;;;;7.57;3.80;;;;;;;-139.48;100.00;61774.03;4943260;29;20518;-70
2022/05/07 03:32:19;;;;;;;7.25;4.32;;;;;;;-139.48;100.00;61774.03;4929458;28;20046;-70
2022/05/07 03:35:03;;;;;;;5.95;4.18;;;;;;;-139.48;100.00;61774.03;4929711;29;20511;-70
2022/05/07 03:37:47;;;;;;;6.85;4.00;;;;;;;-139.48;100.00;61774.03;4943084;29;20459;-70
2022/05/07 03:40:32;;;;;;;6.75;3.85;;;;;;;-139.48;100.00;61774.03;4943076;29;20114;-70
2022/05/07 03:43:16;;;;;;;5.97;4.00;;;;;;;-139.48;100.00;61774.03;4957197;28;20089;-70
2022/05/07 03:46:00;;;;;;;6.78;3.92;;;;;;;-139.48;100.00;61774.03;4956233;29;20410;-70
2022/05/07 03:48:44;;;;;;;6.28;3.92;;;;;;;-139.48;100.00;61774.03;4957214;29;20054;-70
2022/05/07 03:51:28;;;;;;;8.15;4.05;;;;;;;-139.48;100.00;61774.03;4957362;29;20046;-70
2022/05/07 03:54:11;;;;;;;6.35;4.95;;;;;;;-139.48;100.00;61774.03;4956117;29;20114;-70
2022/05/07 03:56:55;;;;;;;7.07;4.38;;;;;;;-139.48;100.00;61774.03;4942764;29;20058;-70
2022/05/07 03:59:40;;;;;;;7.00;3.95;;;;;;;-139.48;100.00;61774.03;4929060;29;20050;-70
2022/05/07 04:02:24;;;;;;;4.43;4.00;;;;;;;-139.48;100.00;61774.03;4942212;28;20053;-70
2022/05/07 04:05:08;;;;;;;7.05;4.28;;;;;;;-139.48;100.00;61774.03;4942369;29;20170;-70
2022/05/07 04:07:52;;;;;;;6.47;4.65;;;;;;;-139.48;100.00;61774.03;4929116;29;20061;-70
2022/05/07 04:10:36;;;;;;;6.15;4.63;;;;;;;-139.48;100.00;61774.03;4956753;29;20058;-70
2022/05/07 04:13:20;;;;;;;8.35;4.97;;;;;;;-139.48;100.00;61774.03;4942112;29;20089;-70
2022/05/07 04:16:04;;;;;;;8.10;4.78;;;;;;;-139.48;100.00;61774.03;4942673;29;20054;-70
2022/05/07 04:18:48;;;;;;;7.20;4.68;;;;;;;-139.48;100.00;61774.03;4956614;29;20098;-70
2022/05/07 04:21:37;;;;;;;6.07;4.60;;;;;;;-139.48;100.00;61774.03;4942215;29;20467;-70
2022/05/07 04:24:21;;;;;;;6.55;5.13;;;;;;;-139.48;100.00;61774.03;4942714;29;20412;-70
2022/05/07 04:27:05;;;;;;;6.90;5.10;;;;;;;-139.48;100.00;61774.03;4941947;29;20054;-70
2022/05/07 04:29:49;;;;;;;9.15;5.30;;;;;;;-139.48;100.00;61774.03;4941889;29;20126;-70
2022/05/07 04:32:33;;;;;;;8.20;4.43;;;;;;;-139.48;100.00;61774.03;4955828;28;20117;-69
2022/05/07 04:35:17;;;;;;;6.35;5.03;;;;;;;-139.48;100.00;61774.03;4942046;29;20054;-70
2022/05/07 04:38:01;;;;;;;10.35;4.45;;;;;;;-139.48;100.00;61774.03;4955345;29;20050;-70
2022/05/07 04:40:45;;;;;;;9.98;4.88;;;;;;;-139.48;100.00;61774.03;4941768;29;20122;-70
2022/05/07 04:43:29;;;;;;;11.57;5.65;;;;;;;-139.48;100.00;61774.03;4941554;29;20126;-70
2022/05/07 04:46:13;;;;;;;10.20;4.90;;;;;;;-139.48;100.00;61774.03;4941610;29;20054;-70
2022/05/07 04:48:57;;;;;;;7.57;4.78;;;;;;;-139.48;100.00;61774.03;4942046;29;20102;-70
2022/05/07 04:51:41;;;;;;;9.30;5.15;;;;;;;-139.48;100.00;61774.03;4956277;29;20046;-70
2022/05/07 04:54:25;;;;;;;6.05;4.70;;;;;;;-139.48;100.00;61774.03;4956525;29;20058;-70
2022/05/07 04:57:09;;;;;;;8.25;5.22;;;;;;;-139.48;100.00;61774.03;4928508;29;20046;-70
2022/05/07 04:59:54;;;;;;;5.90;4.68;;;;;;;-139.48;100.00;61774.03;4941866;29;20547;-70
2022/05/07 05:02:38;;;;;;;5.80;4.88;;;;;;;-139.48;100.00;61774.03;4941330;29;20510;-70
2022/05/07 05:05:25;;;;;;;6.38;4.57;;;;;;;-139.48;100.00;61774.03;4955806;29;20061;-70
2022/05/07 05:08:09;;;;;;;8.38;5.32;;;;;;;-139.48;100.00;61774.03;4941692;29;20162;-70
2022/05/07 05:10:53;;;;;;;7.15;5.22;;;;;;;-139.48;100.00;61774.03;4941169;29;20050;-70
2022/05/07 05:13:37;;;;;;;7.13;4.55;;;;;;;-139.48;100.00;61774.03;4955873;28;20058;-70
2022/05/07 05:16:21;;;;;;;8.57;5.57;;;;;;;-139.48;100.00;61774.03;4941331;29;20428;-70
2022/05/07 05:19:04;;;;;;;5.88;5.10;;;;;;;-139.48;100.00;61774.03;4927906;29;20464;-70
2022/05/07 05:21:48;;;;;;;7.75;5.40;;;;;;;-139.48;100.00;61774.03;4941452;28;20046;-70
2022/05/07 05:24:32;;;;;;;7.43;5.57;;;;;;;-139.48;100.00;61774.03;4955499;29;20467;-70
2022/05/07 05:27:16;;;;;;;6.63;5.18;;;;;;;-139.48;100.00;61774.03;4940938;29;20054;-70
2022/05/07 05:30:00;;;;;;;13.98;5.80;;;;;;;-139.48;100.00;61774.03;4941186;29;20415;-70
2022/05/07 05:32:44;;;;;;;7.68;5.18;;;;;;;-139.48;100.00;61774.03;4940967;29;20054;-70
2022/05/07 05:35:28;;;;;;;10.13;6.13;;;;;;;-139.48;100.00;61774.03;4927659;29;20499;-70
2022/05/07 05:38:12;;;;;;;8.57;6.45;;;;;;;-139.48;100.00;61774.03;4955330;29;20050;-70
2022/05/07 05:40:56;;;;;;;9.65;6.25;;;;;;;-139.48;100.00;61774.03;4955585;29;20058;-70
2022/05/07 05:43:40;;;;;;;9.45;6.07;;;;;;;-139.48;100.00;61774.03;4940717;28;20483;-70
2022/05/07 05:46:24;;;;;;;12.52;7.22;;;;;;;-139.48;100.00;61774.03;4940717;29;20103;-70
2022/05/07 05:49:08;;;;;;;11.57;7.28;;;;;;;-139.48;100.00;61774.03;4955190;29;20049;-70
2022/05/07 05:51:52;;;;;;;10.73;8.70;;;;;;;-139.48;100.00;61774.03;4927194;28;20475;-70
2022/05/07 05:54:36;;;;;;;11.85;8.85;;;;;;;-139.48;100.00;61774.03;4955423;29;20058;-70
2022/05/07 05:57:19;;;;;;;15.93;10.15;;;;;;;-139.48;100.00;61774.03;4940871;29;20455;-70
2022/05/07 06:00:07;;;;;;;12.20;8.88;;;;;;;-139.48;100.00;61774.03;4940806;29;20158;-70
2022/05/07 06:02:51;;;;;;;11.57;9.23;;;;;;;-139.48;100.00;61774.03;4927398;29;20047;-71
2022/05/07 06:05:36;;;;;;;12.40;9.32;;;;;;;-139.48;100.00;61774.03;4941073;29;20515;-70
2022/05/07 06:08:22;;;;;;;17.70;9.82;;;;;;;-139.48;100.00;61774.03;4955023;29;20050;-71
2022/05/07 06:11:07;;;;;;;13.60;8.75;;;;;;;-139.48;100.00;61774.03;4940721;29;20054;-70
2022/05/07 06:13:54;;;;;;;11.40;7.63;;;;;;;-139.48;100.00;61774.03;4940481;29;20057;-70
2022/05/07 06:16:38;;;;;;;13.13;7.85;;;;;;;-139.48;100.00;61774.03;4941396;29;20054;-70
2022/05/07 06:19:22;;;;;;;11.57;7.90;;;;;;;-139.48;100.00;61774.03;4940551;29;20089;-70
2022/05/07 06:22:06;;;;;;;12.65;7.85;;;;;;;-139.48;100.00;61774.03;4940570;28;20074;-70
2022/05/07 06:27:52;;;;;;;9.32;7.40;;;;;;;-139.48;100.00;61774.03;4955071;29;20054;-70
2022/05/07 06:30:36;;;;;;;12.98;7.18;;;;;;;-139.48;100.00;61774.03;4926931;29;20054;-71
2022/05/07 06:33:20;;;;;;;12.43;7.22;;;;;;;-139.48;100.00;61774.03;4940360;29;20070;-71
2022/05/07 06:36:08;;;;;;;16.17;7.90;;;;;;;-139.48;100.00;61774.03;4940549;29;20058;-71
2022/05/07 06:38:51;;;;;;;8.85;7.13;;;;;;;-139.48;100.00;61774.03;4955349;29;20057;-71
2022/05/07 06:41:35;;;;;;;11.88;7.53;;;;;;;-139.48;100.00;61774.03;4940472;29;20054;-70
2022/05/07 06:44:19;;;;;;;12.18;7.97;;;;;;;-139.48;100.00;61774.03;4940536;29;20412;-70
2022/05/07 06:47:03;;;;;;;14.13;7.38;;;;;;;-139.48;100.00;61774.03;4926866;29;20054;-71
2022/05/07 06:49:47;;;;;;;11.07;8.20;;;;;;;-139.48;100.00;61774.03;4940413;29;20473;-71
2022/05/07 06:52:31;;;;;;;14.43;9.43;;;;;;;-139.48;100.00;61774.03;4954507;28;20106;-70
2022/05/07 06:55:16;;;;;;;13.90;8.18;;;;;;;-139.48;100.00;61774.03;4953656;28;20058;-70
2022/05/07 06:58:00;;;;;;;11.15;7.63;;;;;;;-139.48;100.00;61774.03;4943530;29;20411;-71
2022/05/07 07:00:44;;;;;;;14.30;8.27;;;;;;;-139.48;100.00;61774.03;4943810;29;20572;-71
2022/05/07 07:03:28;;;;;;;13.48;9.00;;;;;;;-139.48;100.00;61774.03;4943382;29;20089;-71
2022/05/07 07:06:13;;;;;;;12.88;9.00;;;;;;;-139.48;100.00;61774.03;4930350;29;20054;-71
2022/05/07 07:08:57;;;;;;;11.35;8.65;;;;;;;-139.48;100.00;61774.03;4958208;29;20046;-71
2022/05/07 07:11:41;;;;;;;10.82;7.68;;;;;;;-139.48;100.00;61774.03;4958060;29;20046;-71
2022/05/07 07:14:25;;;;;;;10.63;7.93;;;;;;;-139.48;100.00;61774.03;4943409;29;20183;-71
2022/05/07 07:17:09;;;;;;;10.95;8.23;;;;;;;-139.48;100.00;61774.03;4929672;29;20054;-71
2022/05/07 07:19:52;;;;;;;14.70;8.43;;;;;;;-139.48;100.00;61774.03;4943335;29;20094;-71
2022/05/07 07:22:36;;;;;;;13.50;7.65;;;;;;;-139.48;100.00;61774.03;4957998;28;20081;-71
2022/05/07 07:25:20;;;;;;;13.90;8.82;;;;;;;-139.48;100.00;61774.03;4943023;29;20094;-71
2022/05/07 07:28:05;;;;;;;11.40;8.35;;;;;;;-139.48;100.00;61774.03;4943240;29;20098;-71
2022/05/07 07:30:49;;;;;;;13.75;8.90;;;;;;;-139.48;100.00;61774.03;4929664;29;20057;-71
2022/05/07 07:33:33;;;;;;;8.35;7.20;;;;;;;-139.48;100.00;61774.03;4942835;29;20042;-71
2022/05/07 07:36:17;;;;;;;11.10;7.70;;;;;;;-139.48;100.00;61774.03;4943167;29;20065;-71
2022/05/07 07:39:06;;;;;;;11.82;7.65;;;;;;;-139.48;100.00;61774.03;4942968;29;20073;-71
2022/05/07 07:41:51;;;;;;;12.68;9.07;;;;;;;-139.48;100.00;61774.03;4943537;28;20078;-71
2022/05/07 07:44:35;;;;;;;8.52;6.30;;;;;;;-139.48;100.00;61774.03;4942929;29;20126;-71
2022/05/07 07:50:21;;;;;;;9.60;5.90;;;;;;;-139.48;100.00;61774.03;4945253;29;20050;-71
2022/05/07 07:53:09;;;;;;;10.30;5.53;;;;;;;-139.48;100.00;61774.03;4942457;29;20105;-71
2022/05/07 07:55:53;;;;;;;7.00;5.60;;;;;;;-139.48;100.00;61774.03;4956362;29;20054;-71
2022/05/07 07:58:39;;;;;;;6.75;5.55;;;;;;;-139.48;100.00;61774.03;4942735;29;20062;-71
2022/05/07 08:01:23;;;;;;;9.35;6.65;;;;;;;-139.48;100.00;61774.03;4942647;29;20073;-71
2022/05/07 08:04:06;;;;;;;9.38;7.25;;;;;;;-139.48;100.00;61774.03;4975425;23;20054;-71
2022/05/07 08:11:40;;;;;;;8.32;6.18;;;;;;;-139.48;100.00;61774.03;4995061;28;20045;-71
2022/05/07 08:13:00;;;;;;;17.73;6.97;;;;;;;-139.48;100.00;61774.03;4983141;28;20100;-70
2022/05/07 08:15:45;;;;;;;6.53;5.72;;;;;;;-139.48;100.00;61774.03;4981154;28;20096;-71
2022/05/07 08:18:30;;;;;;;8.32;5.75;;;;;;;-139.48;100.00;61774.03;4995534;28;20141;-71
2022/05/07 08:21:14;;;;;;;10.15;5.88;;;;;;;-139.48;100.00;61774.03;4980810;28;20512;-72
2022/05/07 08:23:58;;;;;;;8.90;5.15;;;;;;;-139.48;100.00;61774.03;4980478;28;20053;-70
2022/05/07 08:26:42;;;;;;;6.47;4.85;;;;;;;-139.48;100.00;61774.03;4980661;28;20061;-71
2022/05/07 08:29:27;;;;;;;8.25;5.03;;;;;;;-139.48;100.00;61774.03;4995202;28;20409;-71
2022/05/07 08:32:11;;;;;;;8.35;5.28;;;;;;;-139.48;100.00;61774.03;4994774;28;20129;-71
2022/05/07 08:34:55;;;;;;;6.45;4.63;;;;;;;-139.48;100.00;61774.03;4994942;28;20085;-72
2022/05/07 08:37:39;;;;;;;6.63;4.22;;;;;;;-139.48;100.00;61774.03;4980657;28;20045;-71
2022/05/07 08:40:24;;;;;;;5.85;4.30;;;;;;;-139.48;100.00;61774.03;4966500;28;20522;-72
2022/05/07 08:43:08;;;;;;;8.70;4.35;;;;;;;-139.48;100.00;61774.03;4980260;28;20513;-71
2022/05/07 08:45:53;;;;;;;5.30;3.75;;;;;;;-139.48;100.00;61774.03;4980331;28;20468;-71
2022/05/07 08:48:41;;;;;;;8.70;5.35;;;;;;;-139.48;100.00;61774.03;4979989;28;20049;-72
2022/05/07 08:51:25;;;;;;;4.90;4.40;;;;;;;-139.48;100.00;61774.03;4966567;28;20057;-71
2022/05/07 08:54:11;;;;;;;8.00;4.80;;;;;;;-139.48;100.00;61774.03;4994598;28;20068;-71
2022/05/07 08:56:56;;;;;;;5.00;4.15;;;;;;;-139.48;100.00;61774.03;4966520;28;20136;-71
2022/05/07 08:59:43;;;;;;;6.93;4.32;;;;;;;-139.48;100.00;61774.03;4979912;28;20494;-72
2022/05/07 09:02:27;;;;;;;6.72;4.30;;;;;;;-139.48;100.00;61774.03;4980507;28;20086;-72
2022/05/07 09:05:13;;;;;;;9.02;4.35;;;;;;;-139.48;100.00;61774.03;4966586;28;20057;-71
2022/05/07 09:07:58;;;;;;;5.72;4.75;;;;;;;-139.48;100.00;61774.03;4979683;28;20100;-72
2022/05/07 09:10:42;;;;;;;6.43;4.28;;;;;;;-139.48;100.00;61774.03;4979919;28;20137;-72
2022/05/07 09:13:33;;;;;;;7.15;4.07;;;;;;;-139.48;100.00;61774.03;4994364;28;20050;-71
2022/05/07 09:16:17;;;;;;;7.63;4.50;;;;;;;-139.48;100.00;61774.03;4979524;28;20045;-71
2022/05/07 09:19:01;;;;;;;6.93;5.18;;;;;;;-139.48;100.00;61774.03;4979163;28;20054;-72
2022/05/07 09:21:45;;;;;;;7.93;4.38;;;;;;;-139.48;100.00;61774.03;4994398;28;20048;-72
2022/05/07 09:24:29;;;;;;;;;;;;;;;-139.48;100.00;61774.03;4979956;28;20060;-71
2022/05/07 09:27:17;;;;;;;6.90;4.78;;;;;;;-139.48;100.00;61774.03;4993105;28;19936;-71
2022/05/07 09:30:03;;;;;;;5.10;4.38;;;;;;;-139.48;100.00;61774.03;4979458;28;20061;-72
2022/05/07 09:32:50;;;;;;;10.43;4.15;;;;;;;-139.48;100.00;61774.03;4979064;28;20129;-72
2022/05/07 09:35:49;;;;;;;5.93;3.85;;;;;;;-139.48;100.00;61774.03;4993887;28;20053;-72
2022/05/07 09:38:33;;;;;;;5.38;4.18;;;;;;;-139.48;100.00;61774.03;4967366;28;20089;-71
2022/05/07 09:41:21;;;;;;;5.57;3.75;;;;;;;-139.48;100.00;61774.03;4979181;28;20041;-72
2022/05/07 09:44:04;;;;;;;5.07;3.83;;;;;;;-139.48;100.00;61774.03;4978943;28;20049;-71
2022/05/07 09:46:48;;;;;;;8.25;3.53;;;;;;;-139.48;100.00;61774.03;4993905;28;20454;-71
2022/05/07 09:49:33;;;;;;;7.53;4.35;;;;;;;-139.48;100.00;61774.03;4979173;28;20049;-71
2022/05/07 09:52:17;;;;;;;7.80;4.55;;;;;;;-139.48;100.00;61774.03;4965201;28;20054;-71
2022/05/07 09:58:05;;;;;;;6.32;3.25;;;;;;;-139.48;100.00;61774.03;4981854;28;20410;-71
2022/05/07 10:01:07;;;;;;;7.80;3.97;;;;;;;-139.48;100.00;61774.03;4978977;28;20054;-71
2022/05/07 10:04:06;;;;;;;4.50;3.65;;;;;;;-139.48;100.00;61774.03;4993578;28;20050;-71
2022/05/07 10:07:18;;;;;;;6.00;3.40;;;;;;;-139.48;100.00;61774.03;4979369;28;20081;-72
2022/05/07 10:10:20;;;;;;;6.32;3.08;;;;;;;-139.48;100.00;61774.03;4979328;28;20101;-71
2022/05/07 10:13:05;;;;;;;5.53;3.22;;;;;;;-139.48;100.00;61774.03;4965332;28;20045;-72
2022/05/07 10:16:02;;;;;;;5.97;3.03;;;;;;;-139.48;100.00;61774.03;4965564;28;20103;-72
2022/05/07 10:18:46;;;;;;;4.97;2.92;;;;;;;-139.48;100.00;61774.03;4979150;28;20414;-72
2022/05/07 10:21:30;;;;;;;4.53;2.83;;;;;;;-139.48;100.00;61774.03;4994077;28;20108;-72
2022/05/07 10:24:19;;;;;;;4.32;2.40;;;;;;;-139.48;100.00;61774.03;4978716;28;20568;-72
2022/05/07 10:27:03;;;;;;;3.05;2.08;;;;;;;-139.48;100.00;61774.03;4978684;28;20080;-72
2022/05/07 10:29:47;;;;;;;2.50;2.28;;;;;;;-139.48;100.00;61774.03;4993819;28;20050;-71
2022/05/07 10:32:46;;;;;;;3.20;2.20;;;;;;;-139.48;100.00;61774.03;4982400;28;20045;-72
2022/05/07 10:35:53;;;;;;;3.75;2.65;;;;;;;-139.48;100.00;61774.03;4982986;28;20112;-72
2022/05/07 10:38:39;;;;;;;2.72;2.33;;;;;;;-139.48;100.00;61774.03;4997121;28;20521;-72
2022/05/07 10:41:24;;;;;;;3.15;2.10;;;;;;;-139.48;100.00;61774.03;4982655;28;20050;-71
2022/05/07 10:44:08;;;;;;;4.03;2.38;;;;;;;-139.48;100.00;61774.03;4982288;28;20100;-71
2022/05/07 10:46:52;;;;;;;5.03;2.65;;;;;;;-139.48;100.00;61774.03;4982146;28;20119;-71
2022/05/07 10:49:55;;;;;;;4.93;3.10;;;;;;;-139.48;100.00;61774.03;4996973;28;20489;-72
2022/05/07 10:52:39;;;;;;;5.03;2.80;;;;;;;-139.48;100.00;61774.03;4968255;28;20049;-71
2022/05/07 10:55:25;;;;;;;3.40;2.40;;;;;;;-139.48;100.00;61774.03;4981935;28;20181;-71
2022/05/07 10:58:09;;;;;;;4.53;3.00;;;;;;;-139.48;100.00;61774.03;4982403;28;20057;-71
2022/05/07 11:00:57;;;;;;;3.03;2.53;;;;;;;-139.48;100.00;61774.03;4981970;28;20057;-71
2022/05/07 11:03:41;;;;;;;10.75;3.10;;;;;;;-139.48;100.00;61774.03;4981748;28;20058;-71
2022/05/07 11:06:25;;;;;;;3.65;3.10;;;;;;;-139.48;100.00;61774.03;4982107;28;20049;-71
2022/05/07 11:09:17;;;;;;;22.58;3.47;;;;;;;-139.48;100.00;61774.03;4982004;28;20085;-71
2022/05/07 11:12:01;;;;;;;3.83;2.55;;;;;;;-139.48;100.00;61774.03;4996690;28;20445;-71
2022/05/07 11:14:45;;;;;;;3.10;2.38;;;;;;;-139.48;100.00;61774.03;4996716;28;20128;-71
2022/05/07 11:17:31;;;;;;;2.53;2.00;;;;;;;-139.48;100.00;61774.03;4982200;28;20088;-72
2022/05/07 11:20:15;;;;;;;2.72;2.22;;;;;;;-139.48;100.00;61774.03;4996360;28;20104;-70
2022/05/07 11:23:00;;;;;;;3.50;2.08;;;;;;;-139.48;100.00;61774.03;4981516;28;20053;-71
2022/05/07 11:25:45;;;;;;;4.55;2.20;;;;;;;-139.48;100.00;61774.03;4996299;28;20053;-71
2022/05/07 11:28:29;;;;;;;3.10;2.20;;;;;;;-139.48;100.00;61774.03;4968373;28;20053;-71
2022/05/07 11:31:28;;;;;;;3.97;2.30;;;;;;;-139.48;100.00;61774.03;4981478;28;20142;-71
2022/05/07 11:34:12;;;;;;;2.97;2.20;;;;;;;-139.48;100.00;61774.03;4981582;28;20045;-71
2022/05/07 11:37:09;;;;;;;2.97;2.03;;;;;;;-139.48;100.00;61774.03;4981408;28;20072;-72
2022/05/07 11:39:57;;;;;;;4.00;2.50;;;;;;;-139.48;100.00;61774.03;4981592;28;20101;-71
2022/05/07 11:42:44;;;;;;;5.18;2.13;;;;;;;-139.48;100.00;61774.03;4981185;28;20061;-71
2022/05/07 11:45:30;;;;;;;8.50;2.20;;;;;;;-139.48;100.00;61774.03;4967784;28;20517;-71
2022/05/07 11:48:17;;;;;;;4.40;2.17;;;;;;;-139.48;100.00;61774.03;4995900;28;20049;-71
2022/05/07 11:51:01;;;;;;;4.70;2.35;;;;;;;-139.48;100.00;61774.03;4996346;28;20455;-71
2022/05/07 11:53:45;;;;;;;2.90;2.22;;;;;;;-139.48;100.00;61774.03;4981197;28;20073;-71
2022/05/07 11:56:29;;;;;;;3.22;2.45;;;;;;;-139.48;100.00;61774.03;4995873;28;20537;-72
2022/05/07 11:59:16;;;;;;;6.00;2.60;;;;;;;-139.48;100.00;61774.03;4980945;28;20097;-70
2022/05/07 12:02:00;;;;;;;4.85;2.22;;;;;;;-139.48;100.00;61774.03;4967985;28;20052;-71
2022/05/07 12:04:44;;;;;;;4.65;2.20;;;;;;;-139.48;100.00;61774.03;4995687;28;20049;-70
2022/05/07 12:07:38;;;;;;;3.40;2.00;;;;;;;-139.48;100.00;61774.03;4995583;28;20085;-71
2022/05/07 12:10:22;;;;;;;3.05;2.33;;;;;;;-139.48;100.00;61774.03;4981001;28;20133;-71
2022/05/07 12:13:06;;;;;;;3.00;2.40;;;;;;;-139.48;100.00;61774.03;4967587;28;20105;-71
2022/05/07 12:18:55;;;;;;;3.53;2.33;;;;;;;-139.48;100.00;61774.03;4995539;28;20085;-71
2022/05/07 12:30:47;;;;;;;2.80;2.20;;;;;;;-139.48;100.00;61774.03;4983287;28;20073;-72
2022/05/07 12:33:32;;;;;;;2.72;2.20;;;;;;;-139.48;100.00;61774.03;4994957;28;20307;-72
2022/05/07 12:36:16;;;;;;;2.95;2.25;;;;;;;-139.48;100.00;61774.03;4980431;28;20422;-72
2022/05/07 12:39:00;;;;;;;9.07;2.33;;;;;;;-139.48;100.00;61774.03;4967090;28;20100;-71
2022/05/07 12:41:44;;;;;;;4.68;2.28;;;;;;;-139.48;100.00;61774.03;4980215;28;20486;-71
2022/05/07 12:44:28;;;;;;;2.50;2.30;;;;;;;-139.48;100.00;61774.03;4980269;28;20101;-71
2022/05/07 12:47:14;;;;;;;6.43;2.50;;;;;;;-139.48;100.00;61774.03;4995004;28;20117;-70
2022/05/07 12:49:58;;;;;;;2.63;2.17;;;;;;;-139.48;100.00;61774.03;4966586;28;20516;-71
2022/05/07 12:52:42;;;;;;;2.38;2.03;;;;;;;-139.48;100.00;61774.03;4995092;28;20056;-71
2022/05/07 12:55:26;;;;;;;4.05;2.33;;;;;;;-139.48;100.00;61774.03;4979840;28;20104;-71
2022/05/07 12:58:11;;;;;;;3.22;2.20;;;;;;;-139.48;100.00;61774.03;4994836;28;20189;-71
2022/05/07 13:00:55;;;;;;;5.90;2.45;;;;;;;-139.48;100.00;61774.03;4979971;28;20122;-71